createdAt,value
2018-02-10T00:01:49.005Z,106.43
2018-02-10T00:04:15.642Z,96.33
2018-02-10T00:06:42.294Z,98.57
2018-02-10T00:09:08.879Z,102.53
2018-02-10T00:11:35.559Z,115.17
2018-02-10T00:14:02.206Z,108.87
2018-02-10T00:16:28.889Z,107.07
2018-02-10T00:18:55.469Z,97.10
2018-02-10T00:21:22.077Z,96.23
2018-02-10T00:23:48.699Z,109.70
2018-02-10T00:26:15.300Z,107.30
2018-02-10T00:28:42.231Z,114.20
2018-02-10T00:31:08.840Z,107.63
2018-02-10T00:33:35.494Z,110.10
2018-02-10T00:36:02.095Z,96.63
2018-02-10T00:38:28.703Z,105.50
2018-02-10T00:40:55.357Z,102.57
2018-02-10T00:43:22.017Z,100.17
2018-02-10T00:45:48.643Z,94.03
2018-02-10T00:48:15.286Z,101.93
2018-02-10T00:50:41.923Z,92.47
2018-02-10T00:53:08.584Z,93.43
2018-02-10T00:55:35.480Z,114.73
2018-02-10T00:58:02.078Z,98.80
2018-02-10T01:00:28.681Z,104.80
2018-02-10T01:02:55.312Z,100.33
2018-02-10T01:05:21.943Z,95.93
2018-02-10T01:07:48.555Z,94.60
2018-02-10T01:10:15.189Z,103.80
2018-02-10T01:12:41.802Z,110.37
2018-02-10T01:15:08.420Z,101.47
2018-02-10T01:17:35.061Z,103.80
2018-02-10T01:20:01.938Z,93.57
2018-02-10T01:22:28.563Z,105.80
2018-02-10T01:24:55.159Z,96.47
2018-02-10T01:27:21.779Z,100.77
2018-02-10T01:29:48.390Z,106.97
2018-02-10T01:32:15.279Z,115.90
2018-02-10T01:34:41.888Z,106.70
2018-02-10T01:37:08.530Z,93.50
2018-02-10T01:39:35.162Z,110.80
2018-02-10T01:42:01.795Z,108.87
2018-02-10T01:44:28.442Z,100.33
2018-02-10T01:46:55.055Z,103.07
2018-02-10T01:49:21.659Z,108.23
2018-02-10T01:51:48.472Z,106.43
2018-02-10T01:54:15.100Z,94.67
2018-02-10T01:56:41.962Z,94.73
2018-02-10T01:59:08.573Z,94.57
2018-02-10T02:01:35.232Z,102.70
2018-02-10T02:04:01.838Z,104.47
2018-02-10T02:06:28.607Z,104.77
2018-02-10T02:08:55.247Z,92.60
2018-02-10T02:11:21.863Z,104.10
2018-02-10T02:13:48.471Z,97.50
2018-02-10T02:16:15.107Z,106.50
2018-02-10T02:18:41.710Z,97.63
2018-02-10T02:21:08.336Z,94.07
2018-02-10T02:23:34.942Z,90.77
2018-02-10T02:26:01.586Z,99.53
2018-02-10T02:28:28.176Z,99.37
2018-02-10T02:30:54.824Z,111.27
2018-02-10T02:33:21.526Z,93.23
2018-02-10T02:35:48.142Z,95.33
2018-02-10T02:38:14.753Z,109.43
2018-02-10T02:40:41.351Z,98.37
2018-02-10T02:43:07.988Z,99.17
2018-02-10T02:45:34.735Z,106.73
2018-02-10T02:48:01.355Z,97.30
2018-02-10T02:50:27.969Z,93.27
2018-02-10T02:52:54.600Z,95.13
2018-02-10T02:55:21.176Z,102.67
2018-02-10T02:57:47.833Z,105.63
2018-02-10T03:00:14.437Z,97.57
2018-02-10T03:07:07.732Z,85.03
2018-02-10T03:09:34.411Z,94.83
2018-02-10T03:12:01.028Z,97.77
2018-02-10T03:14:27.636Z,91.80
2018-02-10T03:16:54.272Z,98.13
2018-02-10T03:19:20.927Z,103.50
2018-02-10T03:21:47.588Z,97.83
2018-02-10T03:24:14.193Z,101.20
2018-02-10T03:26:40.828Z,93.47
2018-02-10T03:29:07.520Z,108.33
2018-02-10T03:31:34.160Z,99.03
2018-02-10T03:34:00.821Z,107.97
2018-02-10T03:36:27.442Z,98.17
2018-02-10T03:38:54.030Z,95.50
2018-02-10T03:41:20.649Z,99.20
2018-02-10T03:43:47.349Z,104.13
2018-02-10T03:46:14.134Z,94.10
2018-02-10T03:48:40.755Z,100.10
2018-02-10T03:51:07.642Z,93.17
2018-02-10T03:53:34.271Z,96.50
2018-02-10T03:56:00.902Z,96.90
2018-02-10T03:58:27.812Z,99.43
2018-02-10T04:00:54.422Z,107.40
2018-02-10T04:03:21.042Z,99.60
2018-02-10T04:05:47.655Z,102.50
2018-02-10T04:08:14.336Z,98.20
2018-02-10T04:10:40.932Z,86.50
2018-02-10T04:13:07.666Z,100.40
2018-02-10T04:15:34.250Z,99.63
2018-02-10T04:18:00.888Z,92.13
2018-02-10T04:20:27.482Z,106.73
2018-02-10T04:22:54.163Z,95.47
2018-02-10T04:25:20.827Z,89.17
2018-02-10T04:27:47.499Z,105.57
2018-02-10T04:30:14.099Z,90.40
2018-02-10T04:32:40.777Z,94.63
2018-02-10T04:35:07.364Z,96.43
2018-02-10T04:37:33.966Z,97.43
2018-02-10T04:40:00.588Z,94.07
2018-02-10T04:42:27.218Z,99.20
2018-02-10T04:44:53.861Z,94.07
2018-02-10T04:47:20.502Z,101.20
2018-02-10T04:49:47.115Z,94.70
2018-02-10T04:52:13.744Z,102.47
2018-02-10T04:54:40.356Z,90.23
2018-02-10T04:57:07.009Z,91.83
2018-02-10T04:59:33.592Z,96.70
2018-02-10T05:02:00.368Z,94.60
2018-02-10T05:04:26.980Z,94.00
2018-02-10T05:06:53.597Z,81.70
2018-02-10T05:09:21.144Z,88.83
2018-02-10T05:11:47.851Z,91.83
2018-02-10T05:14:14.454Z,83.47
2018-02-10T05:16:41.091Z,95.70
2018-02-10T05:19:07.704Z,87.30
2018-02-10T05:21:34.356Z,92.67
2018-02-10T05:24:00.994Z,84.97
2018-02-10T05:26:27.620Z,90.57
2018-02-10T05:28:54.273Z,87.97
2018-02-10T05:31:20.865Z,93.60
2018-02-10T05:33:47.535Z,94.83
2018-02-10T05:36:14.144Z,91.43
2018-02-10T05:38:40.775Z,88.40
2018-02-10T05:41:07.535Z,90.57
2018-02-10T05:43:34.195Z,91.07
2018-02-10T05:46:00.807Z,89.23
2018-02-10T05:48:27.450Z,93.20
2018-02-10T05:50:54.098Z,91.27
2018-02-10T05:53:20.712Z,95.37
2018-02-10T05:55:47.373Z,87.73
2018-02-10T05:58:14.895Z,93.17
2018-02-10T06:00:41.484Z,86.53
2018-02-10T06:03:08.370Z,88.07
2018-02-10T06:05:34.980Z,90.23
2018-02-10T06:08:01.605Z,82.33
2018-02-10T06:10:28.208Z,84.53
2018-02-10T06:12:54.841Z,86.90
2018-02-10T06:15:21.488Z,85.90
2018-02-10T06:17:48.133Z,93.33
2018-02-10T06:20:14.751Z,90.67
2018-02-10T06:22:41.715Z,81.97
2018-02-10T06:25:08.307Z,78.27
2018-02-10T06:27:34.911Z,79.27
2018-02-10T06:30:01.549Z,87.70
2018-02-10T06:32:28.276Z,79.43
2018-02-10T06:34:54.895Z,89.77
2018-02-10T06:37:21.563Z,79.57
2018-02-10T06:39:48.199Z,79.73
2018-02-10T06:42:14.799Z,73.30
2018-02-10T06:44:41.458Z,82.30
2018-02-10T06:47:08.115Z,74.40
2018-02-10T06:49:34.736Z,79.40
2018-02-10T06:52:01.370Z,81.07
2018-02-10T06:54:27.996Z,80.47
2018-02-10T06:56:54.871Z,77.33
2018-02-10T06:59:21.475Z,87.30
2018-02-10T07:01:48.070Z,83.93
2018-02-10T07:04:14.761Z,80.90
2018-02-10T07:06:41.437Z,75.97
2018-02-10T07:09:08.122Z,85.77
2018-02-10T07:11:34.805Z,81.03
2018-02-10T07:14:01.464Z,73.47
2018-02-10T07:16:28.076Z,69.60
2018-02-10T07:18:54.674Z,83.63
2018-02-10T07:21:21.964Z,72.47
2018-02-10T07:23:48.584Z,81.73
2018-02-10T07:26:15.207Z,73.40
2018-02-10T07:28:41.841Z,78.43
2018-02-10T07:31:08.495Z,76.50
2018-02-10T07:33:35.160Z,76.67
2018-02-10T07:36:01.804Z,74.20
2018-02-10T07:38:28.444Z,69.47
2018-02-10T07:40:55.044Z,73.73
2018-02-10T07:43:21.740Z,70.77
2018-02-10T07:45:48.362Z,76.10
2018-02-10T07:48:15.003Z,74.87
2018-02-10T07:50:41.604Z,68.97
2018-02-10T07:53:09.239Z,73.50
2018-02-10T07:55:35.821Z,73.90
2018-02-10T07:58:02.733Z,72.70
2018-02-10T08:00:29.322Z,74.27
2018-02-10T08:02:55.944Z,68.20
2018-02-10T08:05:22.696Z,70.00
2018-02-10T08:07:49.332Z,75.33
2018-02-10T08:10:15.964Z,69.60
2018-02-10T08:12:42.599Z,71.17
2018-02-10T08:15:09.261Z,74.67
2018-02-10T08:17:35.973Z,70.33
2018-02-10T08:20:02.616Z,66.97
2018-02-10T08:22:32.285Z,62.97
2018-02-10T08:24:59.000Z,69.27
2018-02-10T08:27:25.862Z,61.67
2018-02-10T08:29:52.474Z,71.40
2018-02-10T08:32:19.082Z,61.00
2018-02-10T08:34:45.722Z,69.67
2018-02-10T08:37:12.362Z,65.97
2018-02-10T08:39:39.217Z,70.60
2018-02-10T08:42:05.896Z,71.00
2018-02-10T08:44:34.230Z,61.77
2018-02-10T08:47:01.110Z,59.53
2018-02-10T08:49:27.892Z,68.90
2018-02-10T08:51:54.868Z,65.43
2018-02-10T08:54:21.531Z,63.87
2018-02-10T08:56:48.244Z,57.30
2018-02-10T08:59:14.869Z,59.17
2018-02-10T09:01:41.493Z,61.23
2018-02-10T09:04:08.182Z,54.07
2018-02-10T09:06:34.826Z,68.83
2018-02-10T09:09:01.465Z,61.13
2018-02-10T09:11:28.140Z,67.03
2018-02-10T09:13:54.785Z,64.37
2018-02-10T09:16:21.416Z,69.30
2018-02-10T09:18:48.036Z,67.33
2018-02-10T09:21:14.653Z,59.13
2018-02-10T09:23:41.281Z,58.30
2018-02-10T09:26:07.882Z,58.73
2018-02-10T09:28:34.573Z,54.63
2018-02-10T09:31:01.232Z,51.67
2018-02-10T09:33:27.836Z,54.07
2018-02-10T09:35:54.506Z,46.00
2018-02-10T09:38:21.146Z,50.03
2018-02-10T09:40:47.866Z,59.90
2018-02-10T09:43:14.520Z,65.43
2018-02-10T09:45:41.410Z,47.53
2018-02-10T09:48:08.252Z,53.73
2018-02-10T09:50:34.910Z,79.20
2018-02-10T09:53:01.586Z,45.90
2018-02-10T09:55:28.206Z,44.60
2018-02-10T09:57:54.804Z,46.47
2018-02-10T10:00:21.454Z,45.77
2018-02-10T10:02:48.136Z,46.20
2018-02-10T10:05:14.815Z,42.90
2018-02-10T10:07:41.407Z,41.93
2018-02-10T10:10:08.018Z,43.63
2018-02-10T10:12:34.728Z,45.03
2018-02-10T10:15:01.369Z,44.63
2018-02-10T10:17:28.117Z,49.93
2018-02-10T10:19:54.753Z,40.40
2018-02-10T10:22:21.396Z,48.17
2018-02-10T10:24:48.126Z,42.57
2018-02-10T10:27:14.819Z,53.53
2018-02-10T10:29:41.469Z,46.40
2018-02-10T10:32:08.076Z,51.47
2018-02-10T10:34:34.748Z,47.40
2018-02-10T10:37:01.492Z,42.30
2018-02-10T10:39:28.949Z,38.93
2018-02-10T10:41:55.560Z,47.90
2018-02-10T10:44:22.187Z,37.00
2018-02-10T10:46:49.092Z,42.70
2018-02-10T10:49:15.816Z,42.33
2018-02-10T10:51:42.437Z,43.17
2018-02-10T10:54:09.321Z,52.50
2018-02-10T10:56:36.288Z,48.80
2018-02-10T10:59:02.944Z,39.37
2018-02-10T11:01:29.627Z,46.60
2018-02-10T11:03:56.293Z,41.17
2018-02-10T11:06:22.909Z,43.53
2018-02-10T11:08:49.639Z,43.43
2018-02-10T11:11:16.352Z,44.33
2018-02-10T11:13:42.968Z,46.97
2018-02-10T11:16:09.620Z,45.20
2018-02-10T11:18:36.305Z,39.13
2018-02-10T11:21:03.467Z,39.53
2018-02-10T11:23:30.290Z,38.20
2018-02-10T11:25:57.133Z,37.47
2018-02-10T11:28:23.750Z,42.63
2018-02-10T11:30:50.431Z,37.17
2018-02-10T11:33:17.063Z,38.83
2018-02-10T11:35:43.705Z,44.10
2018-02-10T11:38:10.297Z,33.10
2018-02-10T11:40:36.949Z,38.90
2018-02-10T11:43:03.695Z,41.67
2018-02-10T11:45:30.484Z,36.23
2018-02-10T11:47:57.216Z,31.17
2018-02-10T11:50:23.818Z,40.33
2018-02-10T11:52:50.828Z,34.80
2018-02-10T11:55:17.561Z,44.73
2018-02-10T11:57:44.229Z,35.73
2018-02-10T12:00:10.944Z,43.73
2018-02-10T12:02:38.184Z,42.30
2018-02-10T12:05:04.854Z,39.43
2018-02-10T12:07:31.854Z,53.60
2018-02-10T12:09:58.501Z,45.77
2018-02-10T12:12:25.226Z,34.87
2018-02-10T12:14:51.870Z,31.50
2018-02-10T12:17:18.487Z,32.40
2018-02-10T12:19:45.796Z,31.83
2018-02-10T12:22:12.430Z,47.10
2018-02-10T12:24:39.046Z,31.53
2018-02-10T12:27:05.681Z,40.50
2018-02-10T12:29:32.334Z,43.73
2018-02-10T12:32:00.597Z,27.50
2018-02-10T12:34:27.588Z,31.07
2018-02-10T12:36:54.248Z,31.33
2018-02-10T12:39:20.971Z,34.37
2018-02-10T12:41:47.807Z,26.77
2018-02-10T12:44:14.450Z,30.43
2018-02-10T12:46:41.089Z,25.90
2018-02-10T12:49:22.772Z,27.93
2018-02-10T12:51:49.486Z,30.53
2018-02-10T12:54:16.095Z,35.23
2018-02-10T12:56:42.979Z,22.83
2018-02-10T12:59:09.677Z,28.80
2018-02-10T13:01:36.367Z,25.33
2018-02-10T13:04:03.000Z,24.00
2018-02-10T13:06:29.670Z,27.97
2018-02-10T13:08:56.527Z,28.00
2018-02-10T13:11:23.360Z,22.30
2018-02-10T13:13:50.393Z,26.40
2018-02-10T13:16:17.005Z,26.70
2018-02-10T13:18:43.702Z,26.50
2018-02-10T13:21:11.036Z,21.10
2018-02-10T13:23:38.447Z,23.10
2018-02-10T13:26:05.110Z,39.17
2018-02-10T13:28:31.843Z,22.30
2018-02-10T13:30:58.492Z,23.80
2018-02-10T13:33:25.141Z,26.57
2018-02-10T13:35:51.843Z,38.80
2018-02-10T13:38:18.593Z,25.63
2018-02-10T13:40:45.255Z,25.17
2018-02-10T13:43:11.962Z,25.20
2018-02-10T13:45:38.957Z,30.53
2018-02-10T13:48:05.624Z,16.33
2018-02-10T13:50:32.316Z,16.63
2018-02-10T13:52:58.999Z,18.70
2018-02-10T13:55:25.623Z,25.43
2018-02-10T13:57:52.239Z,23.97
2018-02-10T14:00:18.840Z,17.10
2018-02-10T14:02:45.497Z,20.10
2018-02-10T14:05:12.327Z,15.53
2018-02-10T14:07:38.990Z,19.00
2018-02-10T14:10:05.790Z,17.57
2018-02-10T14:12:32.604Z,27.53
2018-02-10T14:14:59.256Z,15.60
2018-02-10T14:17:27.284Z,20.00
2018-02-10T14:19:53.903Z,21.13
2018-02-10T14:22:20.554Z,21.83
2018-02-10T14:24:47.442Z,22.30
2018-02-10T14:27:14.060Z,34.33
2018-02-10T14:29:40.697Z,30.33
2018-02-10T14:32:07.335Z,35.23
2018-02-10T14:34:34.038Z,31.70
2018-02-10T14:37:00.681Z,24.70
2018-02-10T14:39:27.546Z,18.90
2018-02-10T14:41:54.196Z,24.60
2018-02-10T14:44:20.873Z,17.07
2018-02-10T14:46:47.472Z,24.70
2018-02-10T14:49:14.096Z,19.40
2018-02-10T14:51:40.847Z,20.37
2018-02-10T14:54:07.461Z,17.60
2018-02-10T14:56:34.129Z,21.03
2018-02-10T14:59:00.832Z,14.67
2018-02-10T15:01:38.767Z,28.23
2018-02-10T15:19:14.546Z,17.47
2018-02-10T15:21:41.273Z,16.87
2018-02-10T15:24:07.940Z,19.00
2018-02-10T15:26:34.601Z,15.47
2018-02-10T15:29:01.211Z,14.60
2018-02-10T15:31:33.709Z,14.37
2018-02-10T15:34:06.066Z,13.00
2018-02-10T15:36:32.723Z,17.83
2018-02-10T15:38:59.350Z,21.13
2018-02-10T15:41:25.941Z,14.37
2018-02-10T15:43:52.606Z,20.23
2018-02-10T15:46:19.322Z,18.33
2018-02-10T15:48:45.975Z,13.27
2018-02-10T15:51:12.588Z,11.57
2018-02-10T15:53:39.241Z,15.37
2018-02-10T15:56:05.828Z,13.57
2018-02-10T15:58:32.450Z,16.70
2018-02-10T16:00:59.143Z,20.50
2018-02-10T16:03:25.786Z,15.13
2018-02-10T16:05:52.419Z,24.47
2018-02-10T16:08:19.072Z,26.20
2018-02-10T16:10:45.691Z,11.90
2018-02-10T16:13:12.581Z,20.70
2018-02-10T16:15:39.253Z,25.70
2018-02-10T16:18:05.889Z,75.40
2018-02-10T16:20:32.580Z,18.40
2018-02-10T16:22:59.253Z,22.83
2018-02-10T16:25:25.897Z,18.83
2018-02-10T16:27:52.508Z,30.93
2018-02-10T16:30:19.156Z,27.43
2018-02-10T16:32:45.764Z,22.20
2018-02-10T16:35:12.536Z,19.30
2018-02-10T16:37:39.167Z,25.60
2018-02-10T16:53:09.894Z,30.00
2018-02-10T16:55:37.336Z,30.97
2018-02-10T16:58:05.066Z,20.20
2018-02-10T17:00:32.461Z,23.47
2018-02-10T17:02:59.959Z,28.03
2018-02-10T17:05:27.355Z,24.10
2018-02-10T17:07:54.913Z,22.03
2018-02-10T17:10:22.315Z,27.70
2018-02-10T17:12:49.899Z,21.70
2018-02-10T17:15:17.457Z,24.33
2018-02-10T17:17:44.881Z,25.20
2018-02-10T17:20:12.302Z,34.27
2018-02-10T17:22:39.746Z,29.57
2018-02-10T17:25:07.214Z,24.53
2018-02-10T17:27:34.651Z,25.70
2018-02-10T17:30:02.110Z,26.60
2018-02-10T17:32:29.576Z,20.43
2018-02-10T17:34:57.005Z,26.10
2018-02-10T17:37:24.405Z,34.93
2018-02-10T17:39:51.830Z,28.90
2018-02-10T17:42:19.254Z,25.13
2018-02-10T17:44:46.671Z,26.73
2018-02-10T17:47:14.127Z,35.23
2018-02-10T17:49:41.713Z,23.67
2018-02-10T17:52:09.201Z,26.37
2018-02-10T17:54:36.613Z,24.17
2018-02-10T17:57:04.033Z,26.27
2018-02-10T17:59:31.482Z,26.60
2018-02-10T18:01:59.078Z,30.17
2018-02-10T18:04:26.551Z,33.30
2018-02-10T18:06:54.084Z,26.17
2018-02-10T18:09:21.539Z,26.43
2018-02-10T18:11:48.978Z,25.20
2018-02-10T18:14:16.402Z,32.80
2018-02-10T18:16:43.850Z,25.60
2018-02-10T18:19:11.408Z,24.00
2018-02-10T18:21:38.858Z,26.47
2018-02-10T18:24:06.871Z,26.70
2018-02-10T18:26:36.792Z,32.30
2018-02-10T18:29:04.330Z,28.27
2018-02-10T18:31:32.231Z,26.30
2018-02-10T18:34:02.556Z,29.63
2018-02-10T18:36:32.344Z,30.90
2018-02-10T18:39:00.543Z,27.70
2018-02-10T18:41:29.021Z,27.37
2018-02-10T18:43:56.604Z,32.87
2018-02-10T18:46:24.937Z,31.17
2018-02-10T18:52:01.361Z,25.83
2018-02-10T18:54:29.458Z,29.70
2018-02-10T18:56:57.125Z,26.03
2018-02-10T18:59:28.386Z,31.70
2018-02-10T19:01:55.816Z,28.43
2018-02-10T19:04:23.252Z,28.87
2018-02-10T19:06:50.643Z,27.63
2018-02-10T19:09:18.100Z,27.00
2018-02-10T19:11:45.561Z,28.37
2018-02-10T19:14:13.083Z,35.43
2018-02-10T19:16:40.596Z,29.00
2018-02-10T19:19:07.989Z,27.17
2018-02-10T19:21:35.656Z,30.70
2018-02-10T19:24:03.245Z,24.73
2018-02-10T19:26:30.700Z,34.40
2018-02-10T19:28:58.158Z,28.83
2018-02-10T19:31:25.988Z,33.23
2018-02-10T19:33:53.413Z,29.30
2018-02-10T19:36:21.148Z,33.67
2018-02-10T19:38:48.584Z,33.90
2018-02-10T19:41:16.025Z,26.47
2018-02-10T19:43:43.517Z,28.47
2018-02-10T19:46:10.939Z,30.43
2018-02-10T19:48:38.342Z,26.07
2018-02-10T19:51:05.875Z,29.73
2018-02-10T19:53:38.477Z,39.10
2018-02-10T19:56:06.048Z,29.00
2018-02-10T19:58:55.636Z,28.57
2018-02-10T20:01:44.631Z,33.43
2018-02-10T20:04:14.144Z,29.43
2018-02-10T20:06:54.580Z,31.57
2018-02-10T20:09:42.379Z,28.50
2018-02-10T20:12:21.078Z,35.80
2018-02-10T20:20:51.074Z,31.80
2018-02-10T20:28:56.037Z,33.10
2018-02-10T20:31:44.482Z,33.40
2018-02-10T20:34:30.632Z,38.57
2018-02-10T20:36:58.313Z,38.50
2018-02-10T20:39:31.926Z,35.80
2018-02-10T20:42:09.740Z,38.73
2018-02-10T20:44:37.188Z,31.80
2018-02-10T20:47:04.710Z,35.23
2018-02-10T20:49:32.125Z,37.43
2018-02-10T20:51:59.614Z,31.63
2018-02-10T20:54:28.081Z,36.13
2018-02-10T20:56:55.499Z,35.03
2018-02-10T20:59:22.998Z,41.33
2018-02-10T21:01:51.424Z,37.33
2018-02-10T21:04:18.846Z,35.90
2018-02-10T21:06:47.232Z,35.80
2018-02-10T21:09:14.675Z,33.83
2018-02-10T21:11:42.125Z,37.03
2018-02-10T21:14:09.562Z,34.37
2018-02-10T21:16:37.021Z,37.03
2018-02-10T21:19:04.494Z,33.43
2018-02-10T21:21:32.183Z,34.13
2018-02-10T21:23:59.599Z,29.97
2018-02-10T21:26:27.050Z,38.27
2018-02-10T21:28:54.472Z,37.57
2018-02-10T21:31:21.899Z,39.03
2018-02-10T21:33:49.322Z,27.00
2018-02-10T21:36:16.759Z,33.10
2018-02-10T21:38:44.201Z,30.70
2018-02-10T21:41:11.619Z,35.03
2018-02-10T21:43:39.033Z,32.80
2018-02-10T21:46:06.502Z,30.33
2018-02-10T21:48:33.948Z,32.60
2018-02-10T21:51:01.360Z,33.87
2018-02-10T21:53:28.788Z,31.47
2018-02-10T21:55:56.288Z,32.97
2018-02-10T21:58:23.730Z,30.13
2018-02-10T22:00:51.195Z,27.80
2018-02-10T22:03:18.713Z,35.30
2018-02-10T22:05:46.127Z,32.30
2018-02-10T22:08:13.983Z,36.43
2018-02-10T22:10:41.433Z,37.90
2018-02-10T22:13:08.915Z,33.87
2018-02-10T22:15:36.484Z,37.60
2018-02-10T22:18:04.085Z,37.10
2018-02-10T22:20:31.566Z,35.13
2018-02-10T22:22:59.063Z,34.87
2018-02-10T22:25:26.620Z,35.70
2018-02-10T22:27:54.066Z,35.13
2018-02-10T22:30:21.542Z,39.40
2018-02-10T22:32:48.925Z,39.07
2018-02-10T22:35:16.427Z,32.53
2018-02-10T22:37:43.943Z,35.07
2018-02-10T22:40:11.506Z,33.03
2018-02-10T22:42:38.906Z,35.00
2018-02-10T22:45:06.326Z,36.70
2018-02-10T22:47:34.006Z,37.90
2018-02-10T22:50:01.464Z,36.93
2018-02-10T22:52:28.874Z,34.37
2018-02-10T22:54:56.281Z,24.57
2018-02-10T22:57:23.699Z,20.90
2018-02-10T22:59:51.114Z,27.73
2018-02-10T23:02:18.523Z,20.87
2018-02-10T23:04:46.133Z,23.73
2018-02-10T23:07:13.546Z,24.13
2018-02-10T23:09:40.956Z,23.57
2018-02-10T23:12:08.424Z,22.13
2018-02-10T23:14:35.840Z,22.77
2018-02-10T23:17:03.301Z,25.33
2018-02-10T23:19:30.715Z,28.00
2018-02-10T23:21:58.102Z,24.33
2018-02-10T23:24:25.545Z,28.97
2018-02-10T23:26:52.951Z,30.77
2018-02-10T23:29:20.654Z,29.47
2018-02-10T23:31:48.060Z,31.50
2018-02-10T23:34:15.460Z,30.03
2018-02-10T23:36:42.876Z,28.53
2018-02-10T23:39:10.308Z,26.93
2018-02-10T23:41:37.726Z,29.13
2018-02-10T23:44:05.148Z,26.17
2018-02-10T23:46:32.571Z,28.03
2018-02-10T23:48:59.996Z,32.53
2018-02-10T23:51:27.409Z,27.50
2018-02-10T23:53:54.818Z,30.70
2018-02-10T23:56:22.242Z,21.60
2018-02-10T23:58:49.648Z,22.80
